Peotone Weather
Peotone-Weather Station Historical Data
Daily Summary for June 24, 2019 Units:  English    Metric   Both
Daily Weekly Monthly Yearly Custom
  High: Low: Average:
Temperature: 52.4 °F 35.9 °F 43.1 °F
Dew Point: 41.2 °F 27.8 °F 35.3 °F
Humidity: 83.1% 52.7% 74%
Wind Speed: 12.2mph 0mph 3.6mph
Wind Gust: 21.9mph - -
Wind- - ESE
Pressure: 30.25 in 30.06 in -
Precipitation: 0.10 in    
Historical Graphs
 
 
Tabular Data for June 24, 2019
Time Temperature Dew Point Pressure Wind Wind Speed Wind Gust Humidity Rainfall Rate (Hourly) solar
00:04 39.5 °F 27.9 °F 30.25 in SE 3 mph 5.8 mph 63% 0.00 in 0 W/m2
00:09 39.6 °F 28.1 °F 30.25 in SE 2.7 mph 5.8 mph 63.2% 0.00 in 0 W/m2
00:14 39.6 °F 28.1 °F 30.25 in SE 3.2 mph 6.9 mph 63% 0.00 in 0 W/m2
00:19 39.7 °F 28 °F 30.25 in SE 3.3 mph 6.9 mph 62.6% 0.00 in 0 W/m2
00:24 39.8 °F 27.9 °F 30.25 in SE 2.8 mph 6.9 mph 62.2% 0.00 in 0 W/m2
00:29 39.9 °F 27.8 °F 30.25 in SE 2.3 mph 6.9 mph 61.7% 0.00 in 0 W/m2
00:34 39.8 °F 27.8 °F 30.24 in SE 2.8 mph 5.8 mph 61.8% 0.00 in 0 W/m2
00:39 39.7 °F 27.8 °F 30.24 in SE 3 mph 5.8 mph 62.2% 0.00 in 0 W/m2
00:44 39.6 °F 28 °F 30.24 in SE 2.8 mph 5.8 mph 63% 0.00 in 0 W/m2
00:49 39.3 °F 28.6 °F 30.24 in SE 2.2 mph 5.8 mph 65.2% 0.00 in 0 W/m2
00:54 38.9 °F 28.6 °F 30.23 in SE 1.1 mph 4.6 mph 66.2% 0.00 in 0 W/m2
00:59 38.7 °F 28.7 °F 30.23 in SE 0.5 mph 3.4 mph 66.9% 0.00 in 0 W/m2
01:04 38.7 °F 28.6 °F 30.23 in SE 2.3 mph 3.4 mph 66.7% 0.00 in 0 W/m2
01:09 38.7 °F 28.5 °F 30.23 in SE 1.4 mph 3.4 mph 66.5% 0.00 in 0 W/m2
01:14 38.6 °F 28.6 °F 30.23 in SE 1.8 mph 3.4 mph 67% 0.00 in 0 W/m2
01:19 38.6 °F 28.6 °F 30.23 in SE 1.9 mph 3.4 mph 67% 0.00 in 0 W/m2
01:24 38.5 °F 28.6 °F 30.23 in SE 2.2 mph 4.6 mph 67.1% 0.00 in 0 W/m2
01:29 38.6 °F 28.6 °F 30.23 in SE 2.8 mph 4.6 mph 67.1% 0.00 in 0 W/m2
01:34 38.7 °F 28.7 °F 30.23 in SE 2.7 mph 4.6 mph 67% 0.00 in 0 W/m2
01:39 38.8 °F 28.4 °F 30.23 in SE 2.7 mph 4.6 mph 66.1% 0.00 in 0 W/m2
01:44 38.8 °F 28.6 °F 30.23 in SE 1.8 mph 4.6 mph 66.5% 0.00 in 0 W/m2
01:49 38.7 °F 28.7 °F 30.23 in SE 2 mph 4.6 mph 67% 0.00 in 0 W/m2
01:54 38.8 °F 28.4 °F 30.23 in SE 2.3 mph 6.9 mph 65.8% 0.00 in 0 W/m2
01:59 38.9 °F 28.5 °F 30.23 in SE 1.9 mph 6.9 mph 65.8% 0.00 in 0 W/m2
02:04 38.9 °F 28.5 °F 30.22 in SE 1.4 mph 3.4 mph 65.7% 0.00 in 0 W/m2
02:09 38.9 °F 28.3 °F 30.22 in SE 0.9 mph 3.4 mph 65.4% 0.00 in 0 W/m2
02:14 38.8 °F 28.7 °F 30.22 in SE 1 mph 4.6 mph 66.7% 0.00 in 0 W/m2
02:19 38.9 °F 28.5 °F 30.22 in SE 2.3 mph 5.8 mph 65.8% 0.00 in 0 W/m2
02:24 39 °F 28.4 °F 30.22 in SE 1.7 mph 5.8 mph 65.5% 0.00 in 0 W/m2
02:29 39 °F 28.4 °F 30.22 in SE 3.4 mph 4.6 mph 65.4% 0.00 in 0 W/m2
02:34 39.2 °F 28.2 °F 30.22 in SE 2.8 mph 5.8 mph 64.4% 0.00 in 0 W/m2
02:39 39.3 °F 28.1 °F 30.22 in SE 3.8 mph 8.1 mph 64% 0.00 in 0 W/m2
02:44 39.4 °F 27.8 °F 30.22 in SE 4.8 mph 8.1 mph 63% 0.00 in 0 W/m2
02:49 39.4 °F 28 °F 30.22 in SE 3.2 mph 8.1 mph 63.4% 0.00 in 0 W/m2
02:54 39.6 °F 27.8 °F 30.21 in SE 2.5 mph 6.9 mph 62.5% 0.00 in 0 W/m2
02:59 39.6 °F 28 °F 30.21 in SE 2.8 mph 5.8 mph 62.8% 0.00 in 0 W/m2
03:04 39.7 °F 28 °F 30.21 in SE 1.9 mph 5.8 mph 62.5% 0.00 in 0 W/m2
03:09 39.7 °F 28.1 °F 30.20 in SE 2.3 mph 4.6 mph 62.8% 0.00 in 0 W/m2
03:14 39.7 °F 28.2 °F 30.20 in SE 3 mph 6.9 mph 63.2% 0.00 in 0 W/m2
03:19 39.8 °F 28.4 °F 30.20 in SSE 2.4 mph 6.9 mph 63.4% 0.00 in 0 W/m2
03:24 39.7 °F 28.6 °F 30.20 in SSE 3.1 mph 5.8 mph 64% 0.00 in 0 W/m2
03:29 39.7 °F 28.8 °F 30.20 in SSE 5.4 mph 9.2 mph 64.7% 0.00 in 0 W/m2
03:34 39.9 °F 28.4 °F 30.20 in SSE 6 mph 9.2 mph 63.4% 0.00 in 0 W/m2
03:39 40.1 °F 28.7 °F 30.20 in SSE 4.9 mph 9.2 mph 63.5% 0.00 in 0 W/m2
03:44 40.2 °F 29.2 °F 30.20 in SSE 4.5 mph 9.2 mph 64.4% 0.00 in 0 W/m2
03:49 40.1 °F 29.9 °F 30.19 in SSE 4.4 mph 8.1 mph 66.5% 0.00 in 0 W/m2
03:54 39.8 °F 30.3 °F 30.19 in SSE 4.3 mph 8.1 mph 68.5% 0.00 in 0 W/m2
03:59 39.9 °F 30.1 °F 30.19 in SSE 4.3 mph 6.9 mph 67.6% 0.00 in 0 W/m2
04:04 40.2 °F 30.1 °F 30.18 in SSE 4.1 mph 6.9 mph 67.2% 0.00 in 0 W/m2
04:09 40.2 °F 30.4 °F 30.18 in SSE 3.1 mph 6.9 mph 67.8% 0.00 in 0 W/m2
04:14 40.3 °F 30.9 °F 30.18 in South 3.6 mph 6.9 mph 68.8% 0.00 in 0 W/m2
04:19 40.5 °F 31.5 °F 30.18 in SSW 4.3 mph 9.2 mph 70% 0.00 in 0 W/m2
04:24 40.6 °F 31.9 °F 30.17 in SW 3.4 mph 9.2 mph 71% 0.00 in 0 W/m2
04:29 40.6 °F 32.4 °F 30.17 in SW 3.7 mph 5.8 mph 72.3% 0.00 in 0 W/m2
04:34 40.3 °F 32.7 °F 30.17 in SSW 3.3 mph 6.9 mph 73.9% 0.00 in 0 W/m2
04:39 39.9 °F 32.8 °F 30.17 in South 3.4 mph 6.9 mph 75.5% 0.01 in 0 W/m2
04:44 40 °F 33.4 °F 30.17 in South 2.6 mph 6.9 mph 77.3% 0.01 in 0 W/m2
04:49 40.3 °F 34 °F 30.16 in South 1.6 mph 5.8 mph 78% 0.01 in 0 W/m2
04:54 40.7 °F 34.3 °F 30.16 in SSW 2.4 mph 6.9 mph 77.8% 0.01 in 0 W/m2
04:59 40.8 °F 34.4 °F 30.15 in SSW 0.6 mph 6.9 mph 77.9% 0.01 in 0 W/m2
05:04 40.5 °F 34.5 °F 30.15 in Calm   2.3 mph 78.9% 0.01 in 0 W/m2
05:09 40.6 °F 34.7 °F 30.16 in SSW 1.4 mph 3.4 mph 79.2% 0.01 in 0 W/m2
05:14 40.5 °F 34.6 °F 30.16 in Calm   3.4 mph 79.2% 0.01 in 0 W/m2
05:19 40.3 °F 34.6 °F 30.15 in Calm     80% 0.01 in 0 W/m2
05:24 40.3 °F 34.8 °F 30.15 in SSW 2 mph 4.6 mph 80.5% 0.01 in 0 W/m2
05:29 40.5 °F 34.8 °F 30.15 in SSW 1.8 mph 5.8 mph 80% 0.01 in 0 W/m2
05:34 40.4 °F 34.8 °F 30.15 in South 2 mph 5.8 mph 80% 0.01 in 0 W/m2
05:39 40 °F 34.4 °F 30.15 in SSE 0.2 mph 4.6 mph 80% 0.01 in 0 W/m2
05:44 39.6 °F 34.2 °F 30.15 in Calm   1.1 mph 80.8% 0.01 in 0 W/m2
05:49 39.2 °F 33.9 °F 30.15 in Calm     81% 0.00 in 0 W/m2
05:54 39.1 °F 33.9 °F 30.16 in Calm     81.5% 0.00 in 0 W/m2
05:59 39.1 °F 34.1 °F 30.16 in SSE 0.3 mph 3.4 mph 82.1% 0.00 in 0 W/m2
06:04 39.5 °F 34.7 °F 30.16 in SSE 2.8 mph 4.6 mph 83% 0.00 in 0 W/m2
06:09 40.1 °F 35.1 °F 30.16 in SSE 3.7 mph 5.8 mph 82.3% 0.00 in 0 W/m2
06:14 40.3 °F 35 °F 30.16 in SSE 3.4 mph 5.8 mph 81.5% 0.00 in 0 W/m2
06:19 40.3 °F 34.9 °F 30.16 in SSE 3.7 mph 5.8 mph 81% 0.00 in 0 W/m2
06:24 40.2 °F 35 °F 30.16 in SSE 5 mph 8.1 mph 81.3% 0.00 in 0 W/m2
06:29 40.2 °F 35.2 °F 30.16 in SSE 4.2 mph 8.1 mph 82% 0.00 in 0 W/m2
06:34 40.1 °F 35 °F 30.16 in SSE 4.6 mph 6.9 mph 82% 0.00 in 0 W/m2
06:39 40 °F 34.9 °F 30.16 in SSE 4.5 mph 6.9 mph 82% 0.00 in 0 W/m2
06:44 39.7 °F 34.8 °F 30.17 in SE 3.9 mph 6.9 mph 82.2% 0.00 in 0 W/m2
06:49 39.7 °F 35 °F 30.17 in SE 2.7 mph 5.8 mph 83% 0.00 in 0 W/m2
06:54 39.5 °F 34.6 °F 30.17 in SE 1.8 mph 5.8 mph 82.5% 0.00 in 7 W/m2
06:59 39.5 °F 34.7 °F 30.17 in SE 3.6 mph 5.8 mph 83% 0.00 in 14 W/m2
07:04 39.6 °F 34.9 °F 30.17 in SE 2.6 mph 5.8 mph 83.1% 0.00 in 16 W/m2
07:09 39.7 °F 35 °F 30.17 in SE 1.9 mph 5.8 mph 83% 0.00 in 21 W/m2
07:14 39.9 °F 35.1 °F 30.17 in SE 3.1 mph 6.9 mph 83% 0.00 in 30 W/m2
07:19 40.1 °F 35.2 °F 30.17 in SE 0.4 mph 6.9 mph 82.8% 0.00 in 39 W/m2
07:24 40.2 °F 35.1 °F 30.16 in SE 1.1 mph 3.4 mph 82% 0.00 in 49 W/m2
07:29 40.3 °F 35.4 °F 30.16 in SE 2.3 mph 4.6 mph 82.7% 0.00 in 49 W/m2
07:34 40.4 °F 35.5 °F 30.16 in SE 0.8 mph 4.6 mph 82.5% 0.00 in 46 W/m2
07:39 40.5 °F 35.6 °F 30.16 in SE 1.5 mph 4.6 mph 82.4% 0.00 in 53 W/m2
07:44 40.7 °F 35.8 °F 30.16 in SE 1.6 mph 4.6 mph 82.5% 0.00 in 58 W/m2
07:49 41.1 °F 36 °F 30.16 in SE 1.3 mph 4.6 mph 82% 0.00 in 62 W/m2
07:54 41.5 °F 36.4 °F 30.15 in SE 2.3 mph 4.6 mph 82% 0.00 in 77 W/m2
07:59 41.8 °F 36.5 °F 30.15 in SE 0.8 mph 4.6 mph 81.1% 0.00 in 84 W/m2
08:04 41.9 °F 36.5 °F 30.15 in SE 1.3 mph 3.4 mph 81% 0.00 in 104 W/m2
08:09 42 °F 36.9 °F 30.15 in SE 0.8 mph 3.4 mph 81.8% 0.00 in 116 W/m2
08:14 42.4 °F 37.1 °F 30.15 in SE 0.6 mph 3.4 mph 81.3% 0.00 in 120 W/m2
08:19 42.8 °F 37.2 °F 30.15 in SE 0.7 mph 2.3 mph 80.3% 0.00 in 128 W/m2
08:24 43.2 °F 37.2 °F 30.15 in SE 1 mph 3.4 mph 79.3% 0.00 in 158 W/m2
08:29 43.7 °F 37.3 °F 30.15 in SE 0.9 mph 4.6 mph 78% 0.00 in 163 W/m2
08:34 44.3 °F 37.6 °F 30.15 in SE 1.6 mph 4.6 mph 77.1% 0.00 in 169 W/m2
08:39 44.8 °F 37.9 °F 30.15 in SE 1.8 mph 3.4 mph 76.5% 0.00 in 167 W/m2
08:44 45.2 °F 38 °F 30.15 in SE 2.2 mph 4.6 mph 75.6% 0.00 in 160 W/m2
08:49 45.6 °F 38.1 °F 30.15 in SE 4.3 mph 8.1 mph 75% 0.00 in 134 W/m2
08:54 45.6 °F 38.1 °F 30.15 in SSE 4.9 mph 8.1 mph 74.9% 0.00 in 109 W/m2
08:59 45.5 °F 37.9 °F 30.15 in SE 4.1 mph 8.1 mph 74.8% 0.00 in 109 W/m2
09:04 45.4 °F 37.9 °F 30.15 in SE 3.6 mph 6.9 mph 74.9% 0.00 in 111 W/m2
09:09 45.4 °F 37.7 °F 30.15 in SE 2 mph 5.8 mph 74.2% 0.00 in 104 W/m2
09:14 45.4 °F 37.6 °F 30.15 in SE 2.8 mph 5.8 mph 74.2% 0.00 in 98 W/m2
09:19 45.4 °F 37.7 °F 30.15 in SE 4.6 mph 6.9 mph 74.1% 0.00 in 98 W/m2
09:24 45.4 °F 37.7 °F 30.15 in SE 4 mph 6.9 mph 74.3% 0.00 in 81 W/m2
09:29 45.2 °F 37.3 °F 30.15 in SE 3.6 mph 6.9 mph 73.6% 0.00 in 79 W/m2
09:34 45.2 °F 37.2 °F 30.15 in SE 3.5 mph 6.9 mph 73.3% 0.00 in 74 W/m2
09:39 45.1 °F 37.1 °F 30.15 in SE 3.7 mph 6.9 mph 73.3% 0.00 in 69 W/m2
09:44 45 °F 36.9 °F 30.15 in SE 3.8 mph 8.1 mph 73% 0.00 in 54 W/m2
09:49 44.9 °F 36.8 °F 30.15 in ESE 2.6 mph 8.1 mph 73.2% 0.00 in 62 W/m2
09:54 44.8 °F 36.8 °F 30.15 in ESE 1.2 mph 4.6 mph 73.3% 0.00 in 67 W/m2
09:59 44.8 °F 37.1 °F 30.15 in ESE 1.7 mph 4.6 mph 74.2% 0.00 in 76 W/m2
10:04 44.8 °F 37.3 °F 30.15 in ESE 2.8 mph 5.8 mph 75% 0.00 in 84 W/m2
10:09 44.9 °F 37.5 °F 30.15 in SE 3.5 mph 6.9 mph 75% 0.00 in 88 W/m2
10:14 45.1 °F 37.5 °F 30.15 in SSE 2.5 mph 6.9 mph 74.7% 0.00 in 84 W/m2
10:19 45.2 °F 37.5 °F 30.15 in SSE 2.2 mph 6.9 mph 74.4% 0.00 in 93 W/m2
10:24 45.3 °F 37.2 °F 30.15 in SE 2.7 mph 6.9 mph 73% 0.00 in 111 W/m2
10:29 45.5 °F 37.2 °F 30.15 in SE 2.5 mph 5.8 mph 72.6% 0.00 in 109 W/m2
10:34 45.5 °F 37.1 °F 30.15 in SE 4.1 mph 11.5 mph 72.1% 0.00 in 67 W/m2
10:39 45.4 °F 36.5 °F 30.15 in SSE 5.3 mph 11.5 mph 70.9% 0.00 in 62 W/m2
10:44 45.3 °F 36.1 °F 30.15 in SE 3.5 mph 10.3 mph 69.8% 0.00 in 84 W/m2
10:49 45.4 °F 36.3 °F 30.15 in SE 3.5 mph 8.1 mph 70.3% 0.00 in 90 W/m2
10:54 45.5 °F 36.5 °F 30.15 in SE 2 mph 8.1 mph 70.5% 0.00 in 79 W/m2
10:59 45.6 °F 36.6 °F 30.15 in SE 4.9 mph 9.2 mph 70.6% 0.00 in 102 W/m2
11:04 45.7 °F 36.6 °F 30.15 in SE 4.7 mph 9.2 mph 70.2% 0.00 in 102 W/m2
11:09 45.8 °F 36.5 °F 30.15 in SE 1.8 mph 8.1 mph 69.8% 0.00 in 105 W/m2
11:14 45.9 °F 36.8 °F 30.15 in SE 3.4 mph 6.9 mph 70.4% 0.00 in 84 W/m2
11:19 45.9 °F 36.5 °F 30.15 in SE 2.3 mph 6.9 mph 69.6% 0.00 in 88 W/m2
11:24 45.9 °F 36.7 °F 30.15 in SE 3.4 mph 5.8 mph 69.9% 0.00 in 100 W/m2
11:29 46.1 °F 36.6 °F 30.14 in SE 3.8 mph 5.8 mph 69.3% 0.00 in 102 W/m2
11:34 46.2 °F 36.3 °F 30.14 in SE 3.3 mph 5.8 mph 68% 0.00 in 105 W/m2
11:39 46.3 °F 36.2 °F 30.14 in ESE 3.3 mph 8.1 mph 67.6% 0.00 in 105 W/m2
11:44 46.5 °F 36.2 °F 30.14 in ESE 3.3 mph 8.1 mph 67.1% 0.00 in 98 W/m2
11:49 46.6 °F 35.9 °F 30.13 in East 3.6 mph 8.1 mph 66.1% 0.00 in 95 W/m2
11:54 46.6 °F 36.1 °F 30.13 in East 4.2 mph 8.1 mph 66.5% 0.00 in 113 W/m2
11:59 46.9 °F 36.4 °F 30.13 in East 3.2 mph 6.9 mph 66.6% 0.00 in 139 W/m2
12:04 47.1 °F 36.3 °F 30.13 in East 3.1 mph 8.1 mph 65.8% 0.00 in 144 W/m2
12:09 47.4 °F 36.2 °F 30.13 in East 2.8 mph 8.1 mph 64.9% 0.00 in 167 W/m2
12:14 47.7 °F 36.3 °F 30.13 in East 3.1 mph 6.9 mph 64.3% 0.00 in 158 W/m2
12:19 48 °F 36.5 °F 30.13 in East 2.7 mph 8.1 mph 64.1% 0.00 in 149 W/m2
12:24 48.3 °F 36.2 °F 30.13 in East 3.9 mph 8.1 mph 62.7% 0.00 in 151 W/m2
12:29 48.6 °F 36.2 °F 30.13 in East 2.6 mph 6.9 mph 62.1% 0.00 in 144 W/m2
12:34 48.5 °F 35.4 °F 30.12 in East 4.1 mph 8.1 mph 60.2% 0.00 in 123 W/m2
12:39 48.5 °F 35.7 °F 30.12 in ESE 3.2 mph 8.1 mph 61% 0.00 in 148 W/m2
12:44 48.7 °F 36.3 °F 30.12 in East 3.9 mph 8.1 mph 62.2% 0.00 in 176 W/m2
12:49 48.8 °F 36.5 °F 30.12 in East 3.4 mph 8.1 mph 62.2% 0.00 in 223 W/m2
12:54 49.2 °F 36.7 °F 30.12 in East 3.7 mph 6.9 mph 61.9% 0.00 in 258 W/m2
12:59 49.6 °F 36.8 °F 30.12 in ESE 5.1 mph 10.3 mph 61% 0.00 in 269 W/m2
13:04 50.3 °F 37.6 °F 30.11 in ESE 4.8 mph 10.3 mph 61.5% 0.00 in 325 W/m2
13:09 51.1 °F 37.7 °F 30.11 in ESE 6.2 mph 10.3 mph 60% 0.00 in 415 W/m2
13:14 52 °F 37.9 °F 30.11 in SE 5.9 mph 11.5 mph 58.3% 0.00 in 415 W/m2
13:19 52.2 °F 36.5 °F 30.11 in SE 7 mph 11.5 mph 54.9% 0.00 in 306 W/m2
13:24 51.9 °F 36.1 °F 30.11 in SSE 6.2 mph 11.5 mph 54.5% 0.00 in 346 W/m2
13:29 52.3 °F 35.5 °F 30.10 in SSE 5.9 mph 11.5 mph 52.7% 0.00 in 353 W/m2
13:34 52.4 °F 36.8 °F 30.10 in SSE 6.8 mph 11.5 mph 55.1% 0.00 in 288 W/m2
13:39 52.1 °F 36.9 °F 30.10 in SSE 6.1 mph 11.5 mph 56.1% 0.00 in 278 W/m2
13:44 52.2 °F 36.6 °F 30.10 in SSE 6.5 mph 11.5 mph 55% 0.00 in 316 W/m2
13:49 52 °F 36.4 °F 30.10 in SSE 5.7 mph 10.3 mph 55.1% 0.00 in 316 W/m2
13:54 52.1 °F 37 °F 30.10 in South 6.4 mph 10.3 mph 56.2% 0.00 in 294 W/m2
13:59 52.1 °F 37.1 °F 30.09 in SSW 4.8 mph 10.3 mph 56.3% 0.00 in 267 W/m2
14:04 52 °F 37.3 °F 30.09 in South 5.6 mph 10.3 mph 57% 0.00 in 220 W/m2
14:09 51.7 °F 37.4 °F 30.09 in South 5.1 mph 10.3 mph 57.8% 0.00 in 174 W/m2
14:14 51.5 °F 37.6 °F 30.09 in South 3.7 mph 9.2 mph 58.9% 0.00 in 111 W/m2
14:19 51.2 °F 38.3 °F 30.08 in SSW 5.3 mph 8.1 mph 61.2% 0.00 in 76 W/m2
14:24 50.8 °F 39 °F 30.08 in SSW 4.9 mph 9.2 mph 63.9% 0.00 in 70 W/m2
14:29 50 °F 39.6 °F 30.08 in SSW 4.8 mph 9.2 mph 67.2% 0.00 in 84 W/m2
14:34 49.5 °F 39.9 °F 30.08 in SSW 3.6 mph 8.1 mph 69.5% 0.00 in 97 W/m2
14:39 49.1 °F 40 °F 30.08 in SSW 3.4 mph 5.8 mph 70.9% 0.01 in 98 W/m2
14:44 48.7 °F 40 °F 30.08 in SSW 2.9 mph 5.8 mph 71.7% 0.01 in 98 W/m2
14:49 48.5 °F 40.2 °F 30.08 in SSW 1.9 mph 5.8 mph 72.7% 0.01 in 90 W/m2
14:54 48.2 °F 39.9 °F 30.08 in SSW 0.7 mph 4.6 mph 72.6% 0.02 in 86 W/m2
14:59 47.8 °F 39.9 °F 30.08 in SSW 0.4 mph 3.4 mph 73.8% 0.03 in 83 W/m2
15:04 47.6 °F 40.3 °F 30.08 in Calm   2.3 mph 75.7% 0.04 in 69 W/m2
15:09 47.3 °F 40.8 °F 30.07 in Calm     78% 0.05 in 79 W/m2
15:14 47 °F 40.8 °F 30.07 in Calm     79% 0.05 in 120 W/m2
15:19 47 °F 41.2 °F 30.08 in Calm     80.2% 0.07 in 134 W/m2
15:24 47.1 °F 41.2 °F 30.08 in Calm     80% 0.07 in 125 W/m2
15:29 47.1 °F 40.8 °F 30.08 in Calm     78.7% 0.08 in 120 W/m2
15:34 46.8 °F 40.8 °F 30.07 in Calm     79.3% 0.08 in 98 W/m2
15:39 46.9 °F 41.1 °F 30.07 in SSW 0.1 mph 2.3 mph 80.2% 0.09 in 104 W/m2
15:44 46.8 °F 41 °F 30.07 in SSW 0.7 mph 3.4 mph 80.2% 0.09 in 104 W/m2
15:49 46.8 °F 40.8 °F 30.07 in SSW 0.3 mph 3.4 mph 79.6% 0.08 in 86 W/m2
15:54 46.6 °F 40.6 °F 30.07 in ESE 2.2 mph 5.8 mph 79.3% 0.08 in 65 W/m2
15:59 46.5 °F 40.4 °F 30.07 in East 1.2 mph 5.8 mph 79% 0.08 in 69 W/m2
16:04 46.5 °F 40.6 °F 30.07 in East 1.3 mph 3.4 mph 79.8% 0.07 in 63 W/m2
16:09 46.5 °F 40.6 °F 30.07 in East 0.1 mph 3.4 mph 79.8% 0.06 in 74 W/m2
16:14 46.5 °F 40.7 °F 30.07 in East 0.8 mph 3.4 mph 80% 0.05 in 83 W/m2
16:19 46.6 °F 40.9 °F 30.07 in East 1.5 mph 5.8 mph 80.2% 0.04 in 91 W/m2
16:24 46.7 °F 40.8 °F 30.06 in East 3.4 mph 6.9 mph 80% 0.03 in 90 W/m2
16:29 46.6 °F 40.5 °F 30.06 in East 3.1 mph 6.9 mph 79.2% 0.02 in 72 W/m2
16:34 46.7 °F 40.9 °F 30.06 in East 1.2 mph 6.9 mph 80% 0.02 in 65 W/m2
16:39 46.8 °F 41 °F 30.06 in ENE 2.1 mph 6.9 mph 80% 0.01 in 63 W/m2
16:44 46.8 °F 40.9 °F 30.06 in ENE 1.5 mph 6.9 mph 79.8% 0.01 in 69 W/m2
16:49 46.8 °F 41 °F 30.06 in ENE 2.2 mph 5.8 mph 80.2% 0.00 in 69 W/m2
16:54 46.8 °F 41 °F 30.06 in ENE 1.2 mph 5.8 mph 80% 0.00 in 81 W/m2
16:59 46.8 °F 41 °F 30.06 in ENE 2.2 mph 5.8 mph 80.1% 0.00 in 88 W/m2
17:04 47 °F 41.2 °F 30.06 in ENE 1.5 mph 5.8 mph 80.3% 0.00 in 120 W/m2
17:09 47.1 °F 41.2 °F 30.06 in ENE 1.1 mph 4.6 mph 80% 0.00 in 114 W/m2
17:14 47.1 °F 40.9 °F 30.06 in ENE 1 mph 4.6 mph 79% 0.00 in 95 W/m2
17:19 47 °F 40.8 °F 30.06 in ENE 1.7 mph 4.6 mph 78.9% 0.00 in 76 W/m2
17:24 46.9 °F 40.8 °F 30.06 in ENE 1.4 mph 4.6 mph 78.9% 0.00 in 56 W/m2
17:29 46.9 °F 40.9 °F 30.07 in ENE 2.5 mph 4.6 mph 79.6% 0.00 in 33 W/m2
17:34 46.8 °F 41 °F 30.07 in ENE 2 mph 8.1 mph 80% 0.00 in 28 W/m2
17:39 46.7 °F 40.8 °F 30.07 in ENE 1.8 mph 8.1 mph 79.7% 0.00 in 23 W/m2
17:44 46.6 °F 40.4 °F 30.07 in NE 2.9 mph 6.9 mph 79% 0.00 in 19 W/m2
17:49 46.5 °F 40.6 °F 30.07 in NE 2.5 mph 6.9 mph 79.8% 0.00 in 14 W/m2
17:54 46.4 °F 40.6 °F 30.07 in NE 2.6 mph 5.8 mph 80% 0.00 in 12 W/m2
17:59 46.3 °F 40.5 °F 30.07 in NE 2.5 mph 5.8 mph 80% 0.00 in 9 W/m2
18:04 46.3 °F 40.5 °F 30.07 in NE 1.8 mph 5.8 mph 80% 0.00 in 5 W/m2
18:09 46.2 °F 40.4 °F 30.07 in NE 2.4 mph 5.8 mph 80% 0.00 in 5 W/m2
18:14 46.1 °F 40.3 °F 30.07 in NE 3.1 mph 8.1 mph 80% 0.00 in 9 W/m2
18:19 46 °F 40.3 °F 30.07 in ENE 3.3 mph 8.1 mph 80.3% 0.00 in 9 W/m2
18:24 46 °F 40.4 °F 30.07 in NE 4 mph 8.1 mph 80.5% 0.00 in 7 W/m2
18:29 46 °F 40.2 °F 30.07 in NE 2.7 mph 6.9 mph 80.1% 0.00 in 7 W/m2
18:34 46 °F 40.5 °F 30.07 in ENE 3.1 mph 5.8 mph 81% 0.00 in 7 W/m2
18:39 45.9 °F 40.4 °F 30.07 in NE 2.8 mph 5.8 mph 81% 0.00 in 5 W/m2
18:44 45.8 °F 40.3 °F 30.08 in NE 2.6 mph 6.9 mph 81% 0.00 in 5 W/m2
18:49 45.7 °F 40.4 °F 30.08 in NE 2 mph 6.9 mph 81.4% 0.00 in 0 W/m2
18:54 45.7 °F 40.5 °F 30.08 in NE 1.8 mph 4.6 mph 82% 0.00 in 0 W/m2
18:59 45.7 °F 40.5 °F 30.08 in NE 2.2 mph 5.8 mph 82% 0.00 in 0 W/m2
19:04 45.6 °F 40.5 °F 30.08 in NE 2 mph 5.8 mph 82% 0.00 in 0 W/m2
19:09 45.6 °F 40.3 °F 30.08 in NE 1.2 mph 5.8 mph 81.6% 0.00 in 0 W/m2
19:14 45.5 °F 40.3 °F 30.09 in NE 1.2 mph 4.6 mph 81.9% 0.00 in 0 W/m2
19:19 45.5 °F 40 °F 30.09 in NE 1.7 mph 4.6 mph 81% 0.00 in 0 W/m2
19:24 45.5 °F 40 °F 30.09 in NE 3.3 mph 9.2 mph 81% 0.00 in 0 W/m2
19:29 45.3 °F 39.5 °F 30.09 in NE 4.2 mph 9.2 mph 80% 0.00 in 0 W/m2
19:34 45 °F 39.1 °F 30.09 in NE 5 mph 9.2 mph 79.7% 0.00 in 0 W/m2
19:39 44.8 °F 38.9 °F 30.09 in NE 4.1 mph 9.2 mph 79.8% 0.00 in 0 W/m2
19:44 44.6 °F 38.9 °F 30.09 in NE 3.1 mph 8.1 mph 80.3% 0.00 in 0 W/m2
19:49 44.4 °F 38.9 °F 30.09 in NE 3.6 mph 8.1 mph 81.1% 0.00 in 0 W/m2
19:54 44.2 °F 39.1 °F 30.10 in NE 3.5 mph 8.1 mph 82% 0.00 in 0 W/m2
19:59 44 °F 38.9 °F 30.10 in NE 4.8 mph 8.1 mph 82% 0.00 in 0 W/m2
20:04 43.9 °F 38.8 °F 30.10 in NNE 2.2 mph 8.1 mph 82.3% 0.00 in 0 W/m2
20:09 43.8 °F 39 °F 30.11 in NE 2.7 mph 5.8 mph 83% 0.00 in 0 W/m2
20:14 43.7 °F 38.8 °F 30.11 in NE 4.7 mph 8.1 mph 83% 0.00 in 0 W/m2
20:19 43.4 °F 38.6 °F 30.11 in NE 7.1 mph 12.6 mph 83% 0.00 in 0 W/m2
20:24 43.2 °F 38.4 °F 30.12 in NNE 7.3 mph 12.6 mph 83% 0.00 in 0 W/m2
20:29 42.5 °F 37.4 °F 30.12 in NE 9.6 mph 16.1 mph 82.2% 0.00 in 0 W/m2
20:34 41.7 °F 36.4 °F 30.12 in NNE 8.8 mph 17.2 mph 81.3% 0.00 in 0 W/m2
20:39 41.2 °F 35.8 °F 30.12 in NNE 8.9 mph 16.1 mph 81% 0.00 in 0 W/m2
20:44 40.8 °F 35.3 °F 30.12 in NNE 7.7 mph 17.2 mph 80.7% 0.00 in 0 W/m2
20:49 40.4 °F 34.7 °F 30.12 in NE 9.6 mph 17.2 mph 80% 0.00 in 0 W/m2
20:54 40.2 °F 34.5 °F 30.12 in NE 8.4 mph 18.4 mph 80% 0.00 in 0 W/m2
20:59 40 °F 34.3 °F 30.12 in NNE 6.2 mph 18.4 mph 80% 0.00 in 0 W/m2
21:04 39.8 °F 33.9 °F 30.12 in NE 6.6 mph 18.4 mph 79.1% 0.00 in 0 W/m2
21:09 39.8 °F 33.6 °F 30.12 in NNE 7 mph 14.9 mph 78.5% 0.00 in 0 W/m2
21:14 39.7 °F 33.4 °F 30.12 in NNE 6 mph 14.9 mph 78% 0.00 in 0 W/m2
21:19 39.6 °F 33.5 °F 30.12 in NE 5.6 mph 11.5 mph 78.6% 0.00 in 0 W/m2
21:24 39.6 °F 33.7 °F 30.13 in NE 7.2 mph 14.9 mph 79.3% 0.00 in 0 W/m2
21:29 39.4 °F 33.7 °F 30.13 in NE 5.8 mph 14.9 mph 80% 0.00 in 0 W/m2
21:34 39.2 °F 33.5 °F 30.13 in NNE 7.3 mph 16.1 mph 80% 0.00 in 0 W/m2
21:39 38.9 °F 33.3 °F 30.13 in NNE 8.2 mph 16.1 mph 80.2% 0.00 in 0 W/m2
21:44 38.7 °F 33.4 °F 30.14 in NNE 6.8 mph 13.8 mph 81% 0.00 in 0 W/m2
21:49 38.4 °F 33.1 °F 30.14 in NNE 7.5 mph 13.8 mph 81% 0.00 in 0 W/m2
21:54 38.2 °F 32.9 °F 30.14 in NNE 8.7 mph 17.2 mph 81% 0.00 in 0 W/m2
21:59 38 °F 32.9 °F 30.14 in NNE 6.9 mph 17.2 mph 81.6% 0.00 in 0 W/m2
22:04 37.8 °F 32.6 °F 30.14 in NNE 8.6 mph 14.9 mph 81.3% 0.00 in 0 W/m2
22:09 37.7 °F 32.4 °F 30.14 in NNE 7.7 mph 14.9 mph 81.1% 0.00 in 0 W/m2
22:14 37.5 °F 32.2 °F 30.14 in NE 8.6 mph 14.9 mph 81% 0.00 in 0 W/m2
22:19 37.4 °F 32.4 °F 30.14 in NE 7.1 mph 16.1 mph 81.8% 0.00 in 0 W/m2
22:24 37.4 °F 32.4 °F 30.14 in NE 9.7 mph 21.9 mph 82% 0.00 in 0 W/m2
22:29 37.2 °F 32.2 °F 30.13 in NE 9.5 mph 21.9 mph 82% 0.00 in 0 W/m2
22:34 37 °F 32 °F 30.13 in NNE 9.3 mph 16.1 mph 82% 0.00 in 0 W/m2
22:39 36.9 °F 31.9 °F 30.13 in NNE 9.6 mph 19.5 mph 82% 0.00 in 0 W/m2
22:44 36.8 °F 31.8 °F 30.13 in NE 9.4 mph 19.5 mph 82% 0.00 in 0 W/m2
22:49 36.7 °F 31.8 °F 30.13 in NNE 8.3 mph 17.2 mph 82% 0.00 in 0 W/m2
22:54 36.7 °F 31.7 °F 30.13 in NNE 8.4 mph 17.2 mph 82% 0.00 in 0 W/m2
22:59 36.6 °F 31.6 °F 30.13 in NNE 12.2 mph 20.7 mph 82% 0.00 in 0 W/m2
23:04 36.5 °F 31.5 °F 30.13 in NNE 10.6 mph 20.7 mph 82% 0.00 in 0 W/m2
23:09 36.4 °F 31.4 °F 30.13 in NNE 8.8 mph 20.7 mph 82% 0.00 in 0 W/m2
23:14 36.3 °F 31.2 °F 30.13 in NNE 11.1 mph 20.7 mph 81.5% 0.00 in 0 W/m2
23:19 36.3 °F 31.1 °F 30.13 in NNE 7.8 mph 20.7 mph 81.3% 0.00 in 0 W/m2
23:24 36.3 °F 31 °F 30.13 in NNE 9.2 mph 17.2 mph 81% 0.00 in 0 W/m2
23:29 36.2 °F 31 °F 30.13 in NNE 9.1 mph 17.2 mph 81% 0.00 in 0 W/m2
23:34 36.1 °F 30.9 °F 30.13 in NNE 10 mph 17.2 mph 81% 0.00 in 0 W/m2
23:39 36.1 °F 30.8 °F 30.14 in NNE 9.8 mph 17.2 mph 81% 0.00 in 0 W/m2
23:44 36.1 °F 30.8 °F 30.14 in NNE 8.9 mph 17.2 mph 81% 0.00 in 0 W/m2
23:49 36 °F 30.8 °F 30.14 in NNE 8.6 mph 18.4 mph 81% 0.00 in 0 W/m2
23:54 35.9 °F 30.8 °F 30.14 in NNE 8.7 mph 18.4 mph 81.5% 0.00 in 0 W/m2
23:59 35.9 °F 31 °F 30.14 in NNE 7.7 mph 14.9 mph 82% 0.00 in 0 W/m2
Peotne Weather
Compliments of Weather Underground - 4 mb